Main page
METAR-TAF:

METAR-TAF

Airports :

Lossiemouth, Scotland

RAF Lossiemouth

latitude: 57-43N, longitude: 003-19W, elevation: 13 m

Current weather observation

The report was made 56 minutes ago, at 01:50 UTC
Wind 6 kt from the East/Southeast
Temperature 10°C
Humidity 82%
Pressure 1005 hPa
Visibility 10 km or more
no clouds below 1500 m and no cumulonimbus

METAR: EGQS 220150Z 12006KT CAVOK 10/07 Q1005 BLU

Time: 03:46 (02:46 UTC)

Forecast

The report was made 1 hour and 6 minutes ago, at 01:40 UTC
Forecast valid from 22 at 03 UTC to 22 at 21 UTC
Wind 5 kt from the Southeast
Visibility 10 km or more
Few clouds at a height of 4500 ft
Temporary
from 22 at 11 UTC to 22 at 16 UTC
Visibility: 7000 m
Scattered clouds at a height of 2200 ft
rain
Probability 30% :
Temporary
from 22 at 14 UTC to 22 at 16 UTC
Visibility: 4000 m
Broken clouds at a height of 2400 ft, Cumulonimbus.
rain showers

TAF: EGQS 220140Z 2203/2221 14005KT 9999 FEW045 TEMPO 2211/2216 7000 RA SCT022 PROB30 TEMPO 2214/2216 4000 SHRA BKN024CB

Weather observations and forecasts of more than 4000 airports (METAR and TAF reports).

The available stations are represented by yellow and red dots on the map.

Hover mouse over dot to see the name of the station.

Then click to see weather observations and forecasts.

To change the map : click on the green buttons with a black cross to zoom in, on the green button with a dash to zoom out, or on the green arrows for adjacent maps.


METAR-TAF: